createdAt,value
2022-09-14T00:01:27.613Z,15.37
2022-09-14T00:04:03.760Z,15.39
2022-09-14T00:06:30.866Z,15.38
2022-09-14T00:09:00.621Z,15.29
2022-09-14T00:11:29.253Z,15.42
2022-09-14T00:13:57.686Z,15.31
2022-09-14T00:16:31.205Z,15.15
2022-09-14T00:19:06.584Z,15.21
2022-09-14T00:21:38.238Z,15.36
2022-09-14T00:24:07.049Z,15.24
2022-09-14T00:26:34.114Z,15.10
2022-09-14T00:29:04.930Z,15.08
2022-09-14T00:31:33.748Z,15.07
2022-09-14T00:34:02.029Z,15.08
2022-09-14T00:36:30.392Z,15.08
2022-09-14T00:38:57.300Z,15.04
2022-09-14T00:41:29.781Z,15.02
2022-09-14T00:44:05.325Z,14.95
2022-09-14T00:46:36.655Z,15.07
2022-09-14T00:49:09.820Z,15.06
2022-09-14T00:51:39.837Z,15.05
2022-09-14T00:54:07.688Z,15.13
2022-09-14T00:56:34.294Z,15.37
2022-09-14T00:59:10.655Z,15.45
2022-09-14T01:01:37.510Z,15.64
2022-09-14T01:04:04.101Z,15.61
2022-09-14T01:06:42.966Z,15.67
2022-09-14T01:09:19.612Z,15.68
2022-09-14T01:12:01.851Z,15.69
2022-09-14T01:14:31.682Z,15.67
2022-09-14T01:17:05.743Z,15.71
2022-09-14T01:20:05.183Z,15.71
2022-09-14T01:23:15.786Z,15.72
2022-09-14T01:26:00.645Z,15.73
2022-09-14T01:28:37.347Z,15.83
2022-09-14T01:31:12.101Z,15.88
2022-09-14T01:33:46.510Z,15.88
2022-09-14T01:36:16.229Z,15.83
2022-09-14T01:38:47.172Z,15.90
2022-09-14T01:41:16.420Z,15.84
2022-09-14T01:43:48.463Z,15.87
2022-09-14T01:46:22.395Z,15.85
2022-09-14T01:48:54.945Z,15.77
2022-09-14T01:51:28.323Z,15.78
2022-09-14T01:54:03.590Z,15.97
2022-09-14T01:56:39.025Z,15.93
2022-09-14T01:59:11.339Z,15.83
2022-09-14T02:01:46.478Z,15.66
2022-09-14T02:04:22.994Z,15.56
2022-09-14T02:06:49.868Z,15.74
2022-09-14T02:09:21.346Z,15.69
2022-09-14T02:11:48.354Z,15.66
2022-09-14T02:14:14.818Z,15.70
2022-09-14T02:16:43.618Z,15.65
2022-09-14T02:19:10.540Z,15.63
2022-09-14T02:21:38.434Z,15.66
2022-09-14T02:24:05.561Z,15.90
2022-09-14T02:26:32.460Z,15.99
2022-09-14T02:28:59.186Z,16.07
2022-09-14T02:31:35.012Z,15.97
2022-09-14T02:34:07.476Z,15.80
2022-09-14T02:36:52.191Z,15.74
2022-09-14T02:39:43.701Z,15.69
2022-09-14T02:42:22.758Z,15.93
2022-09-14T02:45:18.548Z,15.86
2022-09-14T02:47:55.351Z,15.85
2022-09-14T02:50:27.749Z,15.74
2022-09-14T02:53:25.888Z,15.87
2022-09-14T02:55:58.111Z,15.74
2022-09-14T02:58:24.581Z,15.83
2022-09-14T03:00:51.254Z,15.83
2022-09-14T03:03:20.504Z,15.92
2022-09-14T03:05:47.627Z,15.84
2022-09-14T03:08:14.156Z,15.80
2022-09-14T03:10:43.567Z,15.85
2022-09-14T03:13:10.802Z,15.88
2022-09-14T03:15:37.220Z,15.86
2022-09-14T03:18:03.939Z,15.89
2022-09-14T03:20:32.874Z,15.96
2022-09-14T03:22:59.938Z,15.76
2022-09-14T03:25:27.991Z,15.83
2022-09-14T03:27:59.563Z,15.85
2022-09-14T03:30:27.569Z,15.87
2022-09-14T03:32:54.016Z,15.96
2022-09-14T03:35:20.593Z,15.96
2022-09-14T03:37:47.675Z,15.91
2022-09-14T03:40:21.358Z,15.99
2022-09-14T03:42:50.036Z,16.02
2022-09-14T03:45:17.917Z,15.96
2022-09-14T03:47:44.772Z,15.80
2022-09-14T03:50:12.811Z,15.60
2022-09-14T03:52:39.738Z,15.65
2022-09-14T03:55:09.174Z,15.68
2022-09-14T03:57:36.370Z,15.68
2022-09-14T04:00:04.959Z,15.68
2022-09-14T04:02:31.504Z,15.66
2022-09-14T04:04:57.959Z,15.61
2022-09-14T04:07:24.442Z,15.57
2022-09-14T04:09:50.841Z,15.43
2022-09-14T04:12:17.264Z,15.43
2022-09-14T04:14:43.734Z,15.50
2022-09-14T04:17:10.199Z,15.49
2022-09-14T04:19:39.136Z,15.50
2022-09-14T04:22:05.635Z,15.59
2022-09-14T04:24:32.092Z,15.58
2022-09-14T04:26:59.044Z,15.51
2022-09-14T04:29:25.711Z,15.70
2022-09-14T04:31:52.236Z,15.87
2022-09-14T04:34:18.689Z,15.86
2022-09-14T04:36:45.114Z,15.81
2022-09-14T04:39:13.762Z,15.66
2022-09-14T04:41:40.540Z,15.57
2022-09-14T04:44:07.104Z,15.73
2022-09-14T04:46:35.836Z,15.53
2022-09-14T04:49:03.171Z,15.49
2022-09-14T04:51:31.713Z,15.57
2022-09-14T04:54:02.274Z,15.49
2022-09-14T04:56:31.599Z,15.43
2022-09-14T04:59:00.688Z,15.41
2022-09-14T05:01:29.610Z,15.41
2022-09-14T05:03:56.408Z,15.42
2022-09-14T05:06:28.440Z,15.42
2022-09-14T05:08:55.608Z,15.40
2022-09-14T05:11:25.840Z,15.56
2022-09-14T05:13:52.400Z,15.83
2022-09-14T05:16:21.962Z,15.82
2022-09-14T05:18:49.420Z,15.66
2022-09-14T05:21:18.736Z,15.64
2022-09-14T05:23:45.885Z,15.62
2022-09-14T05:26:13.524Z,15.56
2022-09-14T05:28:40.330Z,15.67
2022-09-14T05:31:09.406Z,15.65
2022-09-14T05:33:36.470Z,15.79
2022-09-14T05:36:05.935Z,15.83
2022-09-14T05:38:34.367Z,15.84
2022-09-14T05:41:01.489Z,15.75
2022-09-14T05:43:29.018Z,15.75
2022-09-14T05:45:56.074Z,15.88
2022-09-14T05:48:22.572Z,15.85
2022-09-14T05:50:49.015Z,15.86
2022-09-14T05:53:15.528Z,15.90
2022-09-14T05:55:41.958Z,16.00
2022-09-14T05:58:08.494Z,15.96
2022-09-14T06:00:35.274Z,16.08
2022-09-14T06:03:01.621Z,15.97
2022-09-14T06:05:28.326Z,16.03
2022-09-14T06:07:55.062Z,16.04
2022-09-14T06:10:21.858Z,16.02
2022-09-14T06:12:53.473Z,16.12
2022-09-14T06:15:24.565Z,16.05
2022-09-14T06:17:51.063Z,16.11
2022-09-14T06:20:18.785Z,16.10
2022-09-14T06:22:45.294Z,16.07
2022-09-14T06:25:11.786Z,16.21
2022-09-14T06:27:38.339Z,16.13
2022-09-14T06:30:05.529Z,16.23
2022-09-14T06:32:32.071Z,16.14
2022-09-14T06:34:58.549Z,16.11
2022-09-14T06:37:24.991Z,16.20
2022-09-14T06:39:51.516Z,16.14
2022-09-14T06:42:18.035Z,16.18
2022-09-14T06:44:44.694Z,16.30
2022-09-14T06:47:11.103Z,16.24
2022-09-14T06:49:37.512Z,16.23
2022-09-14T06:52:04.044Z,16.25
2022-09-14T06:54:30.404Z,16.51
2022-09-14T06:56:56.978Z,16.58
2022-09-14T06:59:23.582Z,16.47
2022-09-14T07:01:49.971Z,16.58
2022-09-14T07:04:17.159Z,16.69
2022-09-14T07:06:49.623Z,16.69
2022-09-14T07:09:18.229Z,16.64
2022-09-14T07:11:45.038Z,16.54
2022-09-14T07:14:12.262Z,16.54
2022-09-14T07:16:40.023Z,16.44
2022-09-14T07:19:10.316Z,16.45
2022-09-14T07:21:36.793Z,16.34
2022-09-14T07:24:03.636Z,16.22
2022-09-14T07:26:39.633Z,16.18
2022-09-14T07:29:08.699Z,16.20
2022-09-14T07:31:42.254Z,16.24
2022-09-14T07:34:09.518Z,16.23
2022-09-14T07:36:36.855Z,16.16
2022-09-14T07:39:08.718Z,16.29
2022-09-14T07:41:36.093Z,16.21
2022-09-14T07:44:05.271Z,16.23
2022-09-14T07:46:38.445Z,16.40
2022-09-14T07:49:06.018Z,16.34
2022-09-14T07:51:54.935Z,16.24
2022-09-14T07:54:21.565Z,16.31
2022-09-14T07:56:48.669Z,16.27
2022-09-14T08:02:02.425Z,16.33
2022-09-14T08:04:28.954Z,16.19
2022-09-14T08:06:55.446Z,16.30
2022-09-14T08:09:22.021Z,16.31
2022-09-14T08:11:48.585Z,16.53
2022-09-14T08:14:15.477Z,16.60
2022-09-14T08:16:42.137Z,16.58
2022-09-14T08:19:16.514Z,16.52
2022-09-14T08:21:46.948Z,16.57
2022-09-14T08:24:17.054Z,16.60
2022-09-14T08:26:43.671Z,16.52
2022-09-14T08:29:12.435Z,16.59
2022-09-14T08:31:39.200Z,16.63
2022-09-14T08:34:06.868Z,16.58
2022-09-14T08:36:36.566Z,16.66
2022-09-14T08:39:04.284Z,16.61
2022-09-14T08:41:41.045Z,16.64
2022-09-14T08:44:40.523Z,16.64
2022-09-14T08:47:16.482Z,16.52
2022-09-14T08:49:54.824Z,16.54
2022-09-14T08:52:28.612Z,16.48
2022-09-14T08:54:58.932Z,16.44
2022-09-14T08:57:54.805Z,16.42
2022-09-14T09:00:25.429Z,16.38
2022-09-14T09:03:10.400Z,16.39
2022-09-14T09:06:15.805Z,16.39
2022-09-14T09:09:01.550Z,16.38
2022-09-14T09:11:46.597Z,16.40
2022-09-14T09:14:20.473Z,16.45
2022-09-14T09:16:50.760Z,16.66
2022-09-14T09:19:28.387Z,16.61
2022-09-14T09:21:55.592Z,16.63
2022-09-14T09:24:40.385Z,16.46
2022-09-14T09:27:11.946Z,16.52
2022-09-14T09:29:38.521Z,16.52
2022-09-14T09:32:08.820Z,16.33
2022-09-14T09:34:36.291Z,16.31
2022-09-14T09:37:02.954Z,16.33
2022-09-14T09:39:31.050Z,16.50
2022-09-14T09:42:01.815Z,16.48
2022-09-14T09:44:28.296Z,16.52
2022-09-14T09:46:58.539Z,16.53
2022-09-14T09:49:31.238Z,16.70
2022-09-14T09:52:11.437Z,16.69
2022-09-14T09:54:40.675Z,16.59
2022-09-14T09:57:27.359Z,16.56
2022-09-14T10:00:09.421Z,16.76
2022-09-14T10:02:35.927Z,16.75
2022-09-14T10:05:12.032Z,16.71
2022-09-14T10:07:41.503Z,16.80
2022-09-14T10:10:12.384Z,16.80
2022-09-14T10:12:45.844Z,16.74
2022-09-14T10:15:16.182Z,16.75
2022-09-14T10:18:01.540Z,16.68
2022-09-14T10:20:28.206Z,16.77
2022-09-14T10:22:54.696Z,16.75
2022-09-14T10:25:25.896Z,16.78
2022-09-14T10:27:55.303Z,16.82
2022-09-14T10:30:36.442Z,16.97
2022-09-14T10:33:05.734Z,17.08
2022-09-14T10:35:58.571Z,17.23
2022-09-14T10:38:43.571Z,17.40
2022-09-14T10:41:27.140Z,17.43
2022-09-14T10:43:57.705Z,17.34
2022-09-14T10:46:31.040Z,17.37
2022-09-14T10:49:28.548Z,17.53
2022-09-14T10:52:16.740Z,17.33
2022-09-14T10:55:10.088Z,17.20
2022-09-14T10:57:54.811Z,17.17
2022-09-14T11:00:22.302Z,17.21
2022-09-14T11:03:24.276Z,17.46
2022-09-14T11:06:21.202Z,17.34
2022-09-14T11:09:02.560Z,17.46
2022-09-14T11:11:36.248Z,17.46
2022-09-14T11:14:14.754Z,17.51
2022-09-14T11:16:57.034Z,17.44
2022-09-14T11:19:48.767Z,17.26
2022-09-14T11:22:47.608Z,17.01
2022-09-14T11:25:27.431Z,16.87
2022-09-14T11:28:03.918Z,17.05
2022-09-14T11:30:41.406Z,17.12
2022-09-14T11:33:16.829Z,17.04
2022-09-14T11:35:48.261Z,17.11
2022-09-14T11:38:21.414Z,17.07
2022-09-14T11:41:03.606Z,17.09
2022-09-14T11:43:42.624Z,17.23
2022-09-14T11:46:30.398Z,17.26
2022-09-14T11:49:12.745Z,17.11
2022-09-14T11:52:07.459Z,17.06
2022-09-14T11:54:34.843Z,17.05
2022-09-14T11:57:03.484Z,17.17
2022-09-14T11:59:41.835Z,17.21
2022-09-14T12:02:23.675Z,17.17
2022-09-14T12:05:05.774Z,17.06
2022-09-14T12:07:47.513Z,17.07
2022-09-14T12:10:14.208Z,17.09
2022-09-14T12:12:43.426Z,16.98
2022-09-14T12:15:25.177Z,17.02
2022-09-14T12:18:02.062Z,17.05
2022-09-14T12:21:15.018Z,17.15
2022-09-14T12:23:44.071Z,17.12
2022-09-14T12:26:10.586Z,17.08
2022-09-14T12:28:40.073Z,17.01
2022-09-14T12:31:28.742Z,17.02
2022-09-14T12:34:24.635Z,17.00
2022-09-14T12:36:51.970Z,17.07
2022-09-14T12:39:30.213Z,17.13
2022-09-14T12:41:56.536Z,17.05
2022-09-14T12:44:31.865Z,17.17
2022-09-14T12:46:58.377Z,17.07
2022-09-14T12:49:28.317Z,17.18
2022-09-14T12:51:56.579Z,17.12
2022-09-14T12:55:05.077Z,17.25
2022-09-14T12:57:44.036Z,17.15
2022-09-14T13:00:17.050Z,17.06
2022-09-14T13:03:20.701Z,17.06
2022-09-14T13:05:47.253Z,16.98
2022-09-14T13:08:21.074Z,17.00
2022-09-14T13:10:50.837Z,17.08
2022-09-14T13:13:31.571Z,17.06
2022-09-14T13:16:01.543Z,17.05
2022-09-14T13:18:31.580Z,-146.37
2022-09-14T13:21:03.663Z,-146.37
2022-09-14T13:23:40.862Z,-146.37
2022-09-14T13:26:33.227Z,-146.37
2022-09-14T13:29:01.416Z,-146.37
2022-09-14T13:31:34.999Z,-146.37
2022-09-14T13:34:05.649Z,-146.37
2022-09-14T13:36:34.334Z,-146.37
2022-09-14T13:39:03.738Z,-146.37
2022-09-14T13:41:32.277Z,-146.37
2022-09-14T13:44:00.292Z,-146.37
2022-09-14T13:46:27.674Z,-146.37
2022-09-14T13:48:55.344Z,-146.37
2022-09-14T13:51:25.662Z,-146.37
2022-09-14T13:53:55.334Z,-146.37
2022-09-14T13:56:26.855Z,-146.37
2022-09-14T13:59:08.740Z,-146.37
2022-09-14T14:01:57.814Z,-146.37
2022-09-14T14:04:35.889Z,-146.37
2022-09-14T14:07:31.113Z,-146.37
2022-09-14T14:09:59.641Z,-146.37
2022-09-14T14:12:39.410Z,-146.37
2022-09-14T14:15:25.833Z,-146.37
2022-09-14T14:17:52.945Z,-146.37
2022-09-14T14:20:38.814Z,-146.37
2022-09-14T14:23:08.198Z,-146.37
2022-09-14T14:25:42.133Z,-146.37
2022-09-14T14:28:23.971Z,-146.37
2022-09-14T14:30:51.013Z,-146.37
2022-09-14T14:33:19.184Z,-146.37
2022-09-14T14:35:49.177Z,-146.37
2022-09-14T14:38:16.888Z,-146.37
2022-09-14T14:40:46.894Z,-146.37
2022-09-14T14:43:23.291Z,-146.37
2022-09-14T14:45:54.390Z,-146.37
2022-09-14T14:48:22.122Z,-146.37
2022-09-14T14:50:49.918Z,-146.37
2022-09-14T14:53:17.402Z,-146.37
2022-09-14T14:55:45.325Z,-146.37
2022-09-14T14:58:17.761Z,-146.37
2022-09-14T15:00:45.819Z,-146.37
2022-09-14T15:03:14.398Z,-146.37
2022-09-14T15:05:46.685Z,-146.37
2022-09-14T15:08:20.680Z,-146.37
2022-09-14T15:10:49.440Z,-146.37
2022-09-14T15:13:16.969Z,-146.37
2022-09-14T15:15:45.548Z,-146.37
2022-09-14T15:18:13.065Z,-146.37
2022-09-14T15:20:40.912Z,-146.37
2022-09-14T15:23:10.612Z,-146.37
2022-09-14T15:25:37.951Z,-146.37
2022-09-14T15:28:04.407Z,-146.37
2022-09-14T15:30:30.895Z,-146.37
2022-09-14T15:32:57.276Z,-146.37
2022-09-14T15:35:23.896Z,-146.37
2022-09-14T15:37:50.322Z,-146.37
2022-09-14T15:40:17.041Z,-146.37
2022-09-14T15:42:43.636Z,-146.37
2022-09-14T15:45:10.707Z,-146.37
2022-09-14T15:47:37.165Z,-146.37
2022-09-14T15:50:05.981Z,-146.37
2022-09-14T15:52:35.946Z,-146.37
2022-09-14T15:55:03.222Z,-146.37
2022-09-14T15:57:29.586Z,-146.37
2022-09-14T15:59:56.071Z,-146.37
2022-09-14T16:02:22.462Z,-146.37
2022-09-14T16:04:48.932Z,-146.37
2022-09-14T16:07:15.405Z,-146.37
2022-09-14T16:09:42.711Z,-146.37
2022-09-14T16:12:11.341Z,-146.37
2022-09-14T16:14:38.014Z,-146.37
2022-09-14T16:17:05.424Z,-146.37
2022-09-14T16:19:32.382Z,-146.37
2022-09-14T16:21:58.891Z,-146.37
2022-09-14T16:24:25.803Z,-146.37
2022-09-14T16:26:53.125Z,-146.37
2022-09-14T16:29:21.221Z,-146.37
2022-09-14T16:31:48.755Z,-146.37
2022-09-14T16:34:24.444Z,-146.37
2022-09-14T16:36:51.668Z,-146.37
2022-09-14T16:39:27.150Z,-146.37
2022-09-14T16:41:55.684Z,-146.37
2022-09-14T16:44:24.485Z,-146.37
2022-09-14T16:46:53.175Z,-146.37
2022-09-14T16:49:24.817Z,-146.37
2022-09-14T16:51:53.875Z,-146.37
2022-09-14T16:54:22.434Z,-146.37
2022-09-14T16:56:48.997Z,-146.37
2022-09-14T16:59:17.513Z,-146.37
2022-09-14T17:01:45.678Z,-146.37
2022-09-14T17:04:16.085Z,-146.37
2022-09-14T17:06:45.178Z,-146.37
2022-09-14T17:09:17.962Z,-146.37
2022-09-14T17:11:45.102Z,-146.37
2022-09-14T17:14:18.081Z,-146.37
2022-09-14T17:16:44.951Z,-146.37
2022-09-14T17:19:12.241Z,-146.37
2022-09-14T17:21:40.337Z,-146.37
2022-09-14T17:24:07.670Z,-146.37
2022-09-14T17:26:34.573Z,-146.37
2022-09-14T17:29:02.269Z,-146.37
2022-09-14T17:31:32.523Z,-146.37
2022-09-14T17:34:00.752Z,-146.37
2022-09-14T17:36:28.393Z,-146.37
2022-09-14T17:39:02.488Z,-146.37
2022-09-14T17:41:32.332Z,-146.37
2022-09-14T17:44:02.459Z,-146.37
2022-09-14T17:46:30.710Z,-146.37
2022-09-14T17:49:05.169Z,-146.37
2022-09-14T17:51:36.779Z,-146.37
2022-09-14T17:54:04.805Z,-146.37
2022-09-14T17:56:32.816Z,-146.37
2022-09-14T17:59:03.509Z,-146.37
2022-09-14T18:01:31.096Z,-146.37
2022-09-14T18:04:00.680Z,-146.37
2022-09-14T18:06:40.022Z,-146.37
2022-09-14T18:09:12.546Z,-146.37
2022-09-14T18:11:41.371Z,-146.37
2022-09-14T18:14:13.211Z,-146.37
2022-09-14T18:16:42.110Z,-146.37
2022-09-14T18:19:10.255Z,-146.37
2022-09-14T18:21:38.264Z,-146.37
2022-09-14T18:24:05.888Z,-146.37
2022-09-14T18:26:32.438Z,-146.37
2022-09-14T18:28:58.995Z,-146.37
2022-09-14T18:31:25.875Z,-146.37
2022-09-14T18:33:54.705Z,-146.37
2022-09-14T18:36:22.514Z,-146.37
2022-09-14T18:38:49.803Z,-146.37
2022-09-14T18:41:17.554Z,-146.37
2022-09-14T18:43:46.510Z,-146.37
2022-09-14T18:46:14.129Z,-146.37
2022-09-14T18:48:43.524Z,-146.37
2022-09-14T18:51:11.314Z,-146.37
2022-09-14T18:53:37.885Z,-146.37
2022-09-14T18:56:07.154Z,-146.37
2022-09-14T18:58:38.628Z,-146.37
2022-09-14T19:01:05.844Z,-146.37
2022-09-14T19:03:33.394Z,-146.37
2022-09-14T19:06:20.459Z,-146.37
2022-09-14T19:08:46.891Z,-146.37
2022-09-14T19:11:17.560Z,-146.37
2022-09-14T19:13:44.505Z,-146.37
2022-09-14T19:16:13.403Z,-146.37
2022-09-14T19:18:41.227Z,-146.37
2022-09-14T19:21:13.057Z,-146.37
2022-09-14T19:23:39.947Z,-146.37
2022-09-14T19:26:15.463Z,-146.37
2022-09-14T19:28:42.533Z,-146.37
2022-09-14T19:31:14.345Z,-146.37
2022-09-14T19:33:45.224Z,-146.37
2022-09-14T19:36:15.643Z,-146.37
2022-09-14T19:38:42.127Z,-146.37
2022-09-14T19:41:10.461Z,-146.37
2022-09-14T19:43:36.973Z,-146.37
2022-09-14T19:46:08.498Z,-146.37
2022-09-14T19:48:35.533Z,-146.37
2022-09-14T19:51:04.282Z,-146.37
2022-09-14T19:53:32.813Z,-146.37
2022-09-14T19:55:59.398Z,-146.37
2022-09-14T19:58:26.360Z,-146.37
2022-09-14T20:00:56.941Z,-146.37
2022-09-14T20:03:24.116Z,-146.37
2022-09-14T20:06:06.051Z,-146.37
2022-09-14T20:08:33.724Z,-146.37
2022-09-14T20:11:08.446Z,-146.37
2022-09-14T20:13:35.897Z,-146.37
2022-09-14T20:16:20.789Z,-146.37
2022-09-14T20:18:49.284Z,-146.37
2022-09-14T20:21:18.973Z,-146.37
2022-09-14T20:24:11.595Z,-146.37
2022-09-14T20:26:32.960Z,-146.37
2022-09-14T20:29:00.657Z,-146.37
2022-09-14T20:31:28.589Z,-146.37
2022-09-14T20:33:55.925Z,-146.37
2022-09-14T20:36:25.146Z,-146.37
2022-09-14T20:38:54.512Z,-146.37
2022-09-14T20:41:29.885Z,-146.37
2022-09-14T20:43:56.607Z,-146.37
2022-09-14T20:46:28.813Z,-146.37
2022-09-14T20:48:55.467Z,-146.37
2022-09-14T20:51:23.437Z,-146.37
2022-09-14T20:53:49.987Z,-146.37
2022-09-14T20:56:19.198Z,-146.37
2022-09-14T20:58:46.285Z,-146.37
2022-09-14T21:01:18.603Z,-146.37
2022-09-14T21:03:46.898Z,-146.37
2022-09-14T21:06:19.587Z,-146.37
2022-09-14T21:08:46.804Z,-146.37
2022-09-14T21:11:23.897Z,-146.37
2022-09-14T21:13:52.767Z,-146.37
2022-09-14T21:16:24.609Z,-146.37
2022-09-14T21:18:58.437Z,-146.37
2022-09-14T21:21:25.584Z,-146.37
2022-09-14T21:23:53.822Z,-146.37
2022-09-14T21:26:20.308Z,-146.37
2022-09-14T21:28:47.221Z,-146.37
2022-09-14T21:31:16.905Z,-146.37
2022-09-14T21:33:46.626Z,-146.37
2022-09-14T21:36:19.578Z,-146.37
2022-09-14T21:38:50.674Z,-146.37
2022-09-14T21:41:18.841Z,-146.37
2022-09-14T21:43:45.947Z,-146.37
2022-09-14T21:46:12.505Z,-146.37
2022-09-14T21:48:39.281Z,-146.37
2022-09-14T21:51:14.860Z,-146.37
2022-09-14T21:53:45.367Z,-146.37
2022-09-14T21:56:11.964Z,-146.37
2022-09-14T21:58:38.619Z,-146.37
2022-09-14T22:01:05.273Z,-146.37
2022-09-14T22:03:31.821Z,-146.37
2022-09-14T22:06:01.218Z,-146.37
2022-09-14T22:08:31.174Z,-146.37
2022-09-14T22:11:15.438Z,-146.37
2022-09-14T22:13:42.414Z,-146.37
2022-09-14T22:16:14.990Z,-146.37
2022-09-14T22:18:48.842Z,-146.37
2022-09-14T22:21:16.197Z,-146.37
2022-09-14T22:23:43.018Z,-146.37
2022-09-14T22:26:12.005Z,-146.37
2022-09-14T22:28:40.815Z,-146.37
2022-09-14T22:31:08.689Z,-146.37
2022-09-14T22:33:35.553Z,-146.37
2022-09-14T22:36:03.200Z,-146.37
2022-09-14T22:38:31.779Z,-146.37
2022-09-14T22:41:01.899Z,-146.37
2022-09-14T22:43:29.206Z,-146.37
2022-09-14T22:45:56.427Z,-146.37
2022-09-14T22:48:23.844Z,-146.37
2022-09-14T22:50:52.493Z,-146.37
2022-09-14T22:53:20.283Z,-146.37
2022-09-14T22:55:47.430Z,-146.37
2022-09-14T22:58:16.531Z,-146.37
2022-09-14T23:00:44.010Z,-146.37
2022-09-14T23:03:11.521Z,-146.37
2022-09-14T23:05:39.779Z,-146.37
2022-09-14T23:08:08.111Z,-146.37
2022-09-14T23:10:38.195Z,-146.37
2022-09-14T23:13:04.656Z,-146.37
2022-09-14T23:15:31.719Z,-146.37
2022-09-14T23:17:58.190Z,-146.37
2022-09-14T23:20:24.635Z,-146.37
2022-09-14T23:22:51.071Z,-146.37
2022-09-14T23:25:17.596Z,-146.37
2022-09-14T23:27:43.975Z,-146.37
2022-09-14T23:30:11.082Z,-146.37
2022-09-14T23:32:37.577Z,-146.37
2022-09-14T23:35:04.682Z,-146.37
2022-09-14T23:37:31.180Z,-146.37
2022-09-14T23:39:57.631Z,-146.37
2022-09-14T23:42:24.066Z,-146.37
2022-09-14T23:44:50.642Z,-146.37
2022-09-14T23:47:18.241Z,-146.37
2022-09-14T23:49:44.736Z,-146.37
2022-09-14T23:52:11.200Z,-146.37
2022-09-14T23:54:37.847Z,-146.37
2022-09-14T23:57:04.331Z,-146.37
2022-09-14T23:59:30.872Z,-146.37
